Time;durP1;ratioP1;P1;durP2;ratioP2;P2;SDS_P1;SDS_P2;PMS_P1;PMS_P2;Temp;Humidity;BMP_temperature;BMP_pressure;BME280_temperature;BME280_humidity;BME280_pressure;Samples;Min_cycle;Max_cycle;Signal;HPM_P1;HPM_P2
2022/06/01 00:01:09;;;;;;;;;;;10.10;99.90;;;;;;5012492;28;19928;-84
2022/06/01 00:03:39;;;;;;;;;;;10.20;99.90;;;;;;5025225;28;19921;-84
2022/06/01 00:06:28;;;;;;;;;;;10.20;99.90;;;;;;5031926;28;19913;-88
2022/06/01 00:09:00;;;;;;;;;;;10.10;99.90;;;;;;5008911;28;19944;-84
2022/06/01 00:11:27;;;;;;;;;;;10.20;99.90;;;;;;5016922;28;19925;-82
2022/06/01 00:14:27;;;;;;;;;;;10.20;99.90;;;;;;5031827;28;19932;-89
2022/06/01 00:17:00;;;;;;;;;;;10.20;99.90;;;;;;5027570;28;19931;-85
2022/06/01 00:22:41;;;;;;;;;;;10.20;99.90;;;;;;5023567;28;19940;-83
2022/06/01 00:25:09;;;;;;;;;;;10.10;99.90;;;;;;5007780;28;19921;-82
2022/06/01 00:27:38;;;;;;;;;;;10.10;99.90;;;;;;5010545;28;19932;-83
2022/06/01 00:30:08;;;;;;;;;;;10.10;99.90;;;;;;5009719;28;19921;-85
2022/06/01 00:32:37;;;;;;;;;;;10.10;99.90;;;;;;5007811;28;19921;-81
2022/06/01 00:35:09;;;;;;;;;;;10.10;99.90;;;;;;5012663;28;19921;-83
2022/06/01 00:37:44;;;;;;;;;;;10.00;99.90;;;;;;5008234;28;19921;-84
2022/06/01 00:40:13;;;;;;;;;;;10.00;99.90;;;;;;5008461;28;19927;-85
2022/06/01 00:42:43;;;;;;;;;;;10.00;99.90;;;;;;5029154;28;19925;-84
2022/06/01 00:45:21;;;;;;;;;;;9.90;99.90;;;;;;5007761;28;19933;-86
2022/06/01 00:48:14;;;;;;;;;;;10.00;99.90;;;;;;5023834;28;19975;-82
2022/06/01 00:50:46;;;;;;;;;;;9.90;99.90;;;;;;5030781;28;19928;-82
2022/06/01 00:53:15;;;;;;;;;;;9.90;99.90;;;;;;5050568;28;20320;-83
2022/06/01 00:55:45;;;;;;;;;;;9.90;99.90;;;;;;5029267;28;19929;-83
2022/06/01 00:58:14;;;;;;;;;;;9.80;99.90;;;;;;5028228;28;19925;-83
2022/06/01 01:00:44;;;;;;;;;;;9.80;99.90;;;;;;5025174;28;19933;-81
2022/06/01 01:03:14;;;;;;;;;;;9.70;99.90;;;;;;5026830;28;19929;-82
2022/06/01 01:05:44;;;;;;;;;;;9.70;99.90;;;;;;5018790;28;19925;-83
2022/06/01 01:08:13;;;;;;;;;;;9.60;99.90;;;;;;5034538;28;19925;-82
2022/06/01 01:10:40;;;;;;;;;;;9.60;99.90;;;;;;5043833;28;19921;-82
2022/06/01 01:13:08;;;;;;;;;;;9.60;99.90;;;;;;5026633;28;19944;-81
2022/06/01 01:15:38;;;;;;;;;;;9.50;99.90;;;;;;5042519;28;19948;-82
2022/06/01 01:18:17;;;;;;;;;;;9.50;99.90;;;;;;5044911;28;19921;-82
2022/06/01 01:23:50;;;;;;;;;;;9.40;99.90;;;;;;5030228;28;20038;-83
2022/06/01 01:26:19;;;;;;;;;;;9.40;99.90;;;;;;5028278;28;19956;-83
2022/06/01 01:28:47;;;;;;;;;;;9.40;99.90;;;;;;5027962;28;20027;-84
2022/06/01 01:31:17;;;;;;;;;;;9.40;99.90;;;;;;5013910;28;19921;-84
2022/06/01 01:33:49;;;;;;;;;;;9.30;99.90;;;;;;5007827;28;19925;-87
2022/06/01 01:36:18;;;;;;;;;;;9.30;99.90;;;;;;5006878;28;19976;-83
2022/06/01 01:38:50;;;;;;;;;;;9.30;99.90;;;;;;5024451;28;19921;-83
2022/06/01 01:41:23;;;;;;;;;;;9.30;99.90;;;;;;5027049;28;19921;-83
2022/06/01 01:44:05;;;;;;;;;;;9.20;99.90;;;;;;5031967;28;19909;-83
2022/06/01 01:46:33;;;;;;;;;;;9.10;99.90;;;;;;5046492;28;19993;-83
2022/06/01 01:49:19;;;;;;;;;;;9.10;99.90;;;;;;5027333;28;20026;-82
2022/06/01 01:51:46;;;;;;;;;;;9.10;99.90;;;;;;5026909;28;19929;-81
2022/06/01 01:54:21;;;;;;;;;;;9.10;99.90;;;;;;5018685;28;20544;-81
2022/06/01 01:57:04;;;;;;;;;;;9.10;99.90;;;;;;5013108;28;19937;-81
2022/06/01 01:59:40;;;;;;;;;;;9.10;99.90;;;;;;5014546;28;19952;-79
2022/06/01 02:02:13;;;;;;;;;;;9.00;99.90;;;;;;5026805;28;19943;-79
2022/06/01 02:07:30;;;;;;;;;;;9.00;99.90;;;;;;5019075;28;20015;-80
2022/06/01 02:12:43;;;;;;;;;;;9.00;99.90;;;;;;5019458;28;19933;-80
2022/06/01 02:15:13;;;;;;;;;;;8.90;99.90;;;;;;5015475;28;20282;-80
2022/06/01 02:17:48;;;;;;;;;;;8.90;99.90;;;;;;5016554;28;20374;-80
2022/06/01 02:20:18;;;;;;;;;;;10.00;99.90;;;;;;4999285;28;19922;-81
2022/06/01 02:22:44;;;;;;;;;;;8.80;99.90;;;;;;5000177;28;19921;-81
2022/06/01 02:25:12;;;;;;;;;;;8.80;99.90;;;;;;5021605;28;19925;-81
2022/06/01 02:27:40;;;;;;;;;;;8.80;99.90;;;;;;5025101;28;19921;-80
2022/06/01 02:30:11;;;;;;;;;;;8.80;99.90;;;;;;5024101;28;19968;-80
2022/06/01 02:32:39;;;;;;;;;;;8.70;99.90;;;;;;5022958;28;20292;-81
2022/06/01 02:35:08;;;;;;;;;;;8.70;99.90;;;;;;5006175;28;19925;-81
2022/06/01 02:37:36;;;;;;;;;;;8.60;99.90;;;;;;5024532;28;19925;-81
2022/06/01 02:40:05;;;;;;;;;;;8.60;99.90;;;;;;5027904;28;19936;-81
2022/06/01 02:42:33;;;;;;;;;;;8.60;99.90;;;;;;5017895;28;19921;-82
2022/06/01 02:45:01;;;;;;;;;;;8.50;99.90;;;;;;5034985;28;19921;-83
2022/06/01 02:47:32;;;;;;;;;;;8.50;99.90;;;;;;5024264;28;20103;-83
2022/06/01 02:49:59;;;;;;;;;;;8.50;99.90;;;;;;5025280;28;19921;-83
2022/06/01 02:52:26;;;;;;;;;;;8.50;99.90;;;;;;5025046;28;19925;-82
2022/06/01 02:54:54;;;;;;;;;;;8.40;99.90;;;;;;5021078;28;19933;-80
2022/06/01 02:57:21;;;;;;;;;;;8.40;99.90;;;;;;5017344;28;19925;-82
2022/06/01 02:59:48;;;;;;;;;;;8.40;99.90;;;;;;5036620;28;19925;-80
2022/06/01 03:02:17;;;;;;;;;;;8.40;99.90;;;;;;5021689;28;19921;-82
2022/06/01 03:04:47;;;;;;;;;;;8.50;99.90;;;;;;5036312;28;20024;-80
2022/06/01 03:07:14;;;;;;;;;;;8.50;99.90;;;;;;5018494;28;19932;-80
2022/06/01 03:09:42;;;;;;;;;;;8.50;99.90;;;;;;5019076;28;19956;-80
2022/06/01 03:12:10;;;;;;;;;;;8.60;99.90;;;;;;5020663;28;19925;-80
2022/06/01 03:14:38;;;;;;;;;;;8.60;99.90;;;;;;5021901;28;20547;-81
2022/06/01 03:17:06;;;;;;;;;;;8.70;99.90;;;;;;5020705;28;20603;-80
2022/06/01 03:19:34;;;;;;;;;;;8.70;99.90;;;;;;5037015;28;19948;-81
2022/06/01 03:22:04;;;;;;;;;;;8.70;99.90;;;;;;5017888;28;19944;-80
2022/06/01 03:24:32;;;;;;;;;;;8.80;99.90;;;;;;5017944;28;20024;-80
2022/06/01 03:26:59;;;;;;;;;;;8.80;99.90;;;;;;5035912;28;19956;-82
2022/06/01 03:29:26;;;;;;;;;;;8.70;99.90;;;;;;5038538;28;19981;-81
2022/06/01 03:31:54;;;;;;;;;;;8.70;99.90;;;;;;5023051;28;19970;-82
2022/06/01 03:34:22;;;;;;;;;;;8.60;99.90;;;;;;5024181;28;19949;-81
2022/06/01 03:36:49;;;;;;;;;;;8.60;99.90;;;;;;5021073;28;19925;-80
2022/06/01 03:39:18;;;;;;;;;;;8.60;99.90;;;;;;5023889;28;20434;-80
2022/06/01 03:41:46;;;;;;;;;;;8.60;99.90;;;;;;5024832;28;19929;-81
2022/06/01 03:47:00;;;;;;;;;;;9.10;99.90;;;;;;5012130;28;20520;-80
2022/06/01 03:49:27;;;;;;;;;;;9.10;99.90;;;;;;5002041;28;19925;-82
2022/06/01 03:51:57;;;;;;;;;;;9.30;99.90;;;;;;5002667;28;19925;-80
2022/06/01 03:54:28;;;;;;;;;;;7.50;99.90;;;;;;5004625;28;19933;-81
2022/06/01 03:56:56;;;;;;;;;;;9.20;99.90;;;;;;5003731;28;19921;-80
2022/06/01 03:59:23;;;;;;;;;;;9.20;99.90;;;;;;5002866;28;19925;-81
2022/06/01 04:01:50;;;;;;;;;;;9.20;99.90;;;;;;5007260;28;19987;-85
2022/06/01 04:04:17;;;;;;;;;;;9.30;99.90;;;;;;5004757;28;19921;-80
2022/06/01 04:06:44;;;;;;;;;;;9.40;99.90;;;;;;5019757;28;19971;-80
2022/06/01 04:09:11;;;;;;;;;;;9.60;99.90;;;;;;5021953;28;19987;-81
2022/06/01 04:11:40;;;;;;;;;;;9.60;99.90;;;;;;5018570;28;19936;-82
2022/06/01 04:14:06;;;;;;;;;;;9.60;99.90;;;;;;5020217;28;19921;-80
2022/06/01 04:16:34;;;;;;;;;;;9.70;99.90;;;;;;5018961;28;20147;-81
2022/06/01 04:19:01;;;;;;;;;;;9.70;99.90;;;;;;5020960;28;19925;-81
2022/06/01 04:21:30;;;;;;;;;;;9.70;99.90;;;;;;5023349;28;20304;-81
2022/06/01 04:23:59;;;;;;;;;;;9.80;99.90;;;;;;5010468;28;19921;-83
2022/06/01 04:26:32;;;;;;;;;;;9.80;99.90;;;;;;5008984;28;19925;-85
2022/06/01 04:29:00;;;;;;;;;;;9.90;99.90;;;;;;5032891;22;19966;-79
2022/06/01 04:31:28;;;;;;;;;;;8.60;99.90;;;;;;5061699;28;19925;-78
2022/06/01 04:33:56;;;;;;;;;;;10.00;99.90;;;;;;5039234;28;19992;-78
2022/06/01 04:36:24;;;;;;;;;;;10.00;99.90;;;;;;5039334;28;20381;-77
2022/06/01 04:38:51;;;;;;;;;;;10.10;99.90;;;;;;5040014;28;19932;-78
2022/06/01 04:41:18;;;;;;;;;;;10.20;99.90;;;;;;5041721;28;19925;-76
2022/06/01 04:43:45;;;;;;;;;;;7.20;99.90;;;;;;5036856;28;20377;-78
2022/06/01 04:46:16;;;;;;;;;;;10.40;99.90;;;;;;5033822;28;20350;-77
2022/06/01 04:48:43;;;;;;;;;;;10.50;99.90;;;;;;5027198;28;19948;-77
2022/06/01 04:51:17;;;;;;;;;;;10.60;99.90;;;;;;5054295;28;19927;-77
2022/06/01 04:53:45;;;;;;;;;;;10.80;99.90;;;;;;5046072;28;19921;-77
2022/06/01 04:56:13;;;;;;;;;;;10.70;99.90;;;;;;5044234;28;19921;-78
2022/06/01 04:58:41;;;;;;;;;;;10.80;99.90;;;;;;5040056;28;20250;-77
2022/06/01 05:01:08;;;;;;;;;;;10.90;99.90;;;;;;5040048;28;19935;-77
2022/06/01 05:03:36;;;;;;;;;;;11.10;99.90;;;;;;5041875;28;19936;-79
2022/06/01 05:06:03;;;;;;;;;;;11.10;99.90;;;;;;5039095;28;19997;-78
2022/06/01 05:08:30;;;;;;;;;;;11.30;99.90;;;;;;5025484;28;19931;-78
2022/06/01 05:10:58;;;;;;;;;;;11.50;99.90;;;;;;5027144;28;19948;-79
2022/06/01 05:13:25;;;;;;;;;;;11.60;99.90;;;;;;5037488;28;19925;-78
2022/06/01 05:15:54;;;;;;;;;;;11.80;99.90;;;;;;5031159;28;19944;-79
2022/06/01 05:18:21;;;;;;;;;;;12.10;99.90;;;;;;5035742;28;19921;-78
2022/06/01 05:20:49;;;;;;;;;;;12.30;99.90;;;;;;5031811;28;20341;-77
2022/06/01 05:23:17;;;;;;;;;;;12.50;99.90;;;;;;5040113;28;19924;-78
2022/06/01 05:25:44;;;;;;;;;;;12.60;99.90;;;;;;5610226;22;19924;-79
2022/06/01 05:28:11;;;;;;;;;;;12.70;99.90;;;;;;5069614;28;19921;-79
2022/06/01 05:30:38;;;;;;;;;;;12.90;99.90;;;;;;5043721;28;19971;-79
2022/06/01 05:33:05;;;;;;;;;;;13.40;99.90;;;;;;5042747;28;19924;-78
2022/06/01 05:35:32;;;;;;;;;;;14.30;99.90;;;;;;5043345;28;19932;-79
2022/06/01 05:38:00;;;;;;;;;;;15.40;99.90;;;;;;5026931;28;20039;-79
2022/06/01 05:40:30;;;;;;;;;;;17.80;99.90;;;;;;5065370;23;19951;-78
2022/06/01 05:42:57;;;;;;;;;;;17.70;99.90;;;;;;5059678;28;20007;-78
2022/06/01 05:45:24;;;;;;;;;;;18.90;99.90;;;;;;5064821;28;19920;-77
2022/06/01 05:47:50;;;;;;;;;;;20.00;99.90;;;;;;5060275;28;19969;-76
2022/06/01 05:50:17;;;;;;;;;;;20.70;99.90;;;;;;5054463;28;19924;-76
2022/06/01 05:52:44;;;;;;;;;;;21.50;99.90;;;;;;5042177;28;19921;-76
2022/06/01 05:55:13;;;;;;;;;;;22.20;99.90;;;;;;5047867;28;20340;-77
2022/06/01 05:57:40;;;;;;;;;;;23.20;99.90;;;;;;5047318;28;19924;-76
2022/06/01 06:00:10;;;;;;;;;;;24.00;99.90;;;;;;5030345;28;19921;-76
2022/06/01 06:02:39;;;;;;;;;;;24.70;99.90;;;;;;5045775;28;20198;-77
2022/06/01 06:06:11;;;;;;;;;;;25.40;99.90;;;;;;5052264;28;20297;-76
2022/06/01 06:07:54;;;;;;;;;;;26.30;99.90;;;;;;5065410;28;19946;-77
2022/06/01 06:10:22;;;;;;;;;;;26.20;99.90;;;;;;5066367;28;19920;-76
2022/06/01 06:12:49;;;;;;;;;;;27.60;99.90;;;;;;5050544;28;19928;-76
2022/06/01 06:15:16;;;;;;;;;;;28.10;99.90;;;;;;5047429;28;19924;-77
2022/06/01 06:17:43;;;;;;;;;;;28.50;99.90;;;;;;5046479;28;19974;-76
2022/06/01 06:20:10;;;;;;;;;;;28.70;99.90;;;;;;5047595;28;19924;-77
2022/06/01 06:22:37;;;;;;;;;;;28.70;99.90;;;;;;5042867;28;19921;-77
2022/06/01 06:25:04;;;;;;;;;;;28.80;99.90;;;;;;5046555;28;20307;-77
2022/06/01 06:27:32;;;;;;;;;;;28.90;99.90;;;;;;5047641;28;20029;-77
2022/06/01 06:29:58;;;;;;;;;;;29.40;99.90;;;;;;5050371;28;20393;-76
2022/06/01 06:32:28;;;;;;;;;;;29.60;99.90;;;;;;5044613;28;20114;-76
2022/06/01 06:34:54;;;;;;;;;;;29.80;99.90;;;;;;5053434;28;19929;-76
2022/06/01 06:37:21;;;;;;;;;;;30.30;99.90;;;;;;5046620;28;19935;-76
2022/06/01 06:39:48;;;;;;;;;;;31.00;99.90;;;;;;5047119;28;20107;-76
2022/06/01 06:42:15;;;;;;;;;;;31.00;99.90;;;;;;5043645;28;20500;-76
2022/06/01 06:44:43;;;;;;;;;;;31.10;99.90;;;;;;5040757;28;20460;-76
2022/06/01 06:47:10;;;;;;;;;;;31.00;99.90;;;;;;5059209;28;19931;-76
2022/06/01 06:49:37;;;;;;;;;;;31.20;99.90;;;;;;5028749;28;20174;-76
2022/06/01 06:52:04;;;;;;;;;;;31.40;99.90;;;;;;5046931;28;19974;-76
2022/06/01 06:54:31;;;;;;;;;;;32.00;99.90;;;;;;5046255;28;19924;-77
2022/06/01 06:56:58;;;;;;;;;;;32.50;99.90;;;;;;5045469;28;20396;-76
2022/06/01 06:59:24;;;;;;;;;;;32.70;99.90;;;;;;5045634;28;20354;-77
2022/06/01 07:01:52;;;;;;;;;;;32.50;99.90;;;;;;5048730;28;19925;-76
2022/06/01 07:04:19;;;;;;;;;;;32.20;99.90;;;;;;5047657;28;19928;-77
2022/06/01 07:06:46;;;;;;;;;;;32.20;99.90;;;;;;5050143;28;19978;-77
2022/06/01 07:09:12;;;;;;;;;;;31.90;99.90;;;;;;5046820;28;19928;-79
2022/06/01 07:11:39;;;;;;;;;;;31.90;99.90;;;;;;5053325;28;19928;-77
2022/06/01 07:14:06;;;;;;;;;;;32.00;99.90;;;;;;5049356;28;20361;-77
2022/06/01 07:16:33;;;;;;;;;;;31.90;99.90;;;;;;5050947;28;20015;-77
2022/06/01 07:19:04;;;;;;;;;;;32.10;99.90;;;;;;5051432;28;19920;-76
2022/06/01 07:21:31;;;;;;;;;;;32.20;99.90;;;;;;5061407;28;20412;-76
2022/06/01 07:23:57;;;;;;;;;;;32.60;99.90;;;;;;5069403;28;19924;-76
2022/06/01 07:26:25;;;;;;;;;;;32.70;99.90;;;;;;5069327;28;19920;-76
2022/06/01 07:28:52;;;;;;;;;;;31.80;99.90;;;;;;5032687;28;20329;-76
2022/06/01 07:31:19;;;;;;;;;;;31.70;99.90;;;;;;5049815;28;19920;-76
2022/06/01 07:33:46;;;;;;;;;;;31.10;99.90;;;;;;5032595;28;20406;-76
2022/06/01 07:36:15;;;;;;;;;;;29.70;99.90;;;;;;5058292;28;20679;-76
2022/06/01 07:44:12;;;;;;;;;;;28.00;99.90;;;;;;5045149;28;19921;-76
2022/06/01 07:46:39;;;;;;;;;;;27.00;99.90;;;;;;5068819;28;19928;-77
2022/06/01 07:49:07;;;;;;;;;;;25.80;99.90;;;;;;5052788;28;19968;-77
2022/06/01 07:51:35;;;;;;;;;;;23.80;99.90;;;;;;5050826;28;19996;-76
2022/06/01 07:54:02;;;;;;;;;;;23.80;99.90;;;;;;5043710;28;19925;-76
2022/06/01 07:56:28;;;;;;;;;;;22.90;99.90;;;;;;5038873;28;19920;-76
2022/06/01 07:58:55;;;;;;;;;;;21.80;99.90;;;;;;5047232;28;19921;-76
2022/06/01 08:01:25;;;;;;;;;;;21.80;99.90;;;;;;5066927;28;19924;-76
2022/06/01 08:03:52;;;;;;;;;;;21.30;99.90;;;;;;5052100;28;19924;-76
2022/06/01 08:06:18;;;;;;;;;;;21.00;99.90;;;;;;5062256;28;19927;-78
2022/06/01 08:08:46;;;;;;;;;;;20.70;99.90;;;;;;5074203;28;19920;-77
2022/06/01 08:11:13;;;;;;;;;;;20.70;99.90;;;;;;5042606;28;19931;-78
2022/06/01 08:13:39;;;;;;;;;;;20.70;99.90;;;;;;5052366;28;19931;-78
2022/06/01 08:16:06;;;;;;;;;;;20.60;99.90;;;;;;5054826;28;20275;-78
2022/06/01 08:18:32;;;;;;;;;;;20.70;99.90;;;;;;5057116;28;20669;-78
2022/06/01 08:20:59;;;;;;;;;;;20.70;99.90;;;;;;5050923;28;19936;-78
2022/06/01 08:23:26;;;;;;;;;;;20.60;99.90;;;;;;5051716;28;19932;-78
2022/06/01 08:25:55;;;;;;;;;;;20.00;99.90;;;;;;5036517;28;19928;-77
2022/06/01 08:28:22;;;;;;;;;;;19.30;99.90;;;;;;5052303;28;19972;-77
2022/06/01 08:30:49;;;;;;;;;;;18.70;99.90;;;;;;5055211;28;20301;-77
2022/06/01 08:33:16;;;;;;;;;;;18.40;99.90;;;;;;5051529;28;19929;-77
2022/06/01 08:35:45;;;;;;;;;;;18.20;99.90;;;;;;5056394;28;19925;-78
2022/06/01 08:38:11;;;;;;;;;;;18.30;99.90;;;;;;5054260;28;19931;-77
2022/06/01 08:40:44;;;;;;;;;;;18.40;99.90;;;;;;5056123;28;19920;-77
2022/06/01 08:43:13;;;;;;;;;;;18.70;99.90;;;;;;5048593;28;19925;-78
2022/06/01 08:45:41;;;;;;;;;;;18.90;99.90;;;;;;5062118;28;19924;-77
2022/06/01 08:48:10;;;;;;;;;;;18.90;99.90;;;;;;5053188;28;19924;-78
2022/06/01 08:50:38;;;;;;;;;;;19.00;99.90;;;;;;5077071;28;20304;-77
2022/06/01 08:53:05;;;;;;;;;;;19.40;99.90;;;;;;5057612;28;20009;-77
2022/06/01 08:55:36;;;;;;;;;;;19.80;99.90;;;;;;5059220;28;20293;-77
2022/06/01 08:58:12;;;;;;;;;;;19.90;99.90;;;;;;5032580;28;20030;-78
2022/06/01 09:00:44;;;;;;;;;;;20.50;99.90;;;;;;5069254;28;20276;-78
2022/06/01 09:03:14;;;;;;;;;;;19.20;99.90;;;;;;5060189;28;19931;-78
2022/06/01 09:05:44;;;;;;;;;;;19.10;99.90;;;;;;5062528;28;19936;-78
2022/06/01 09:08:12;;;;;;;;;;;19.30;99.90;;;;;;5061619;28;19924;-78
2022/06/01 09:10:53;;;;;;;;;;;19.60;99.90;;;;;;5043624;28;19924;-78
2022/06/01 09:13:24;;;;;;;;;;;20.00;99.90;;;;;;5048777;28;20118;-78
2022/06/01 09:15:54;;;;;;;;;;;20.30;99.90;;;;;;5037820;28;19956;-79
2022/06/01 09:18:22;;;;;;;;;;;20.60;99.90;;;;;;5047588;28;19929;-79
2022/06/01 09:23:33;;;;;;;;;;;21.00;99.90;;;;;;5048192;28;19994;-78
2022/06/01 09:26:00;;;;;;;;;;;21.00;99.90;;;;;;5030646;28;19928;-77
2022/06/01 09:28:27;;;;;;;;;;;20.90;99.90;;;;;;5053005;28;19974;-77
2022/06/01 09:30:59;;;;;;;;;;;20.70;99.90;;;;;;5048025;28;19928;-77
2022/06/01 09:33:27;;;;;;;;;;;20.60;99.90;;;;;;5046917;28;20004;-78
2022/06/01 09:36:01;;;;;;;;;;;20.80;99.90;;;;;;5056448;28;19928;-77
2022/06/01 09:38:41;;;;;;;;;;;21.00;99.90;;;;;;5043425;28;19956;-77
2022/06/01 09:41:10;;;;;;;;;;;21.30;99.90;;;;;;5050837;28;19924;-77
2022/06/01 09:43:39;;;;;;;;;;;21.70;99.90;;;;;;5046203;28;19932;-77
2022/06/01 09:46:07;;;;;;;;;;;22.00;99.90;;;;;;5052548;28;19924;-77
2022/06/01 09:48:35;;;;;;;;;;;22.10;99.90;;;;;;5046765;28;19963;-77
2022/06/01 09:51:04;;;;;;;;;;;22.00;99.90;;;;;;5044008;28;19925;-77
2022/06/01 09:53:35;;;;;;;;;;;21.80;99.90;;;;;;5050176;28;20019;-78
2022/06/01 09:56:03;;;;;;;;;;;21.70;99.90;;;;;;5067246;28;20476;-77
2022/06/01 10:06:50;;;;;;;;;;;22.00;99.90;;;;;;5051923;28;19921;-77
2022/06/01 10:09:20;;;;;;;;;;;21.90;99.90;;;;;;5035301;28;19950;-77
2022/06/01 10:11:48;;;;;;;;;;;22.00;99.90;;;;;;5066850;28;19920;-77
2022/06/01 10:14:18;;;;;;;;;;;22.20;99.90;;;;;;5046353;28;19924;-78
2022/06/01 10:17:00;;;;;;;;;;;22.40;99.90;;;;;;5052141;28;19932;-78
2022/06/01 10:19:29;;;;;;;;;;;22.80;99.90;;;;;;5036063;28;20305;-78
2022/06/01 10:21:58;;;;;;;;;;;23.30;99.90;;;;;;5046038;28;19925;-77
2022/06/01 10:24:27;;;;;;;;;;;23.60;99.90;;;;;;5047389;28;20389;-77
2022/06/01 10:26:58;;;;;;;;;;;23.80;99.90;;;;;;5028902;28;19924;-78
2022/06/01 10:29:27;;;;;;;;;;;23.70;99.90;;;;;;5050944;28;20073;-77
2022/06/01 10:31:55;;;;;;;;;;;23.80;99.90;;;;;;5050472;28;20035;-77
2022/06/01 10:34:25;;;;;;;;;;;23.80;99.90;;;;;;5043559;28;19924;-77
2022/06/01 10:36:56;;;;;;;;;;;23.80;99.90;;;;;;5044349;28;19928;-78
2022/06/01 10:39:24;;;;;;;;;;;23.70;99.90;;;;;;5042483;28;20336;-78
2022/06/01 10:41:55;;;;;;;;;;;23.40;99.90;;;;;;5049108;28;19924;-78
2022/06/01 10:44:25;;;;;;;;;;;23.10;99.90;;;;;;5053208;28;19924;-78
2022/06/01 10:46:57;;;;;;;;;;;22.70;99.90;;;;;;5031300;28;19924;-78
2022/06/01 10:49:28;;;;;;;;;;;21.80;99.90;;;;;;5055162;28;19924;-78
2022/06/01 10:52:00;;;;;;;;;;;21.60;99.90;;;;;;5070870;28;20378;-77
2022/06/01 10:54:32;;;;;;;;;;;21.00;99.90;;;;;;5071299;28;19924;-77
2022/06/01 10:56:59;;;;;;;;;;;20.60;99.90;;;;;;5070049;28;19924;-77
2022/06/01 10:59:26;;;;;;;;;;;20.80;99.90;;;;;;5059907;28;20405;-77
2022/06/01 11:02:07;;;;;;;;;;;20.50;99.90;;;;;;5047345;28;19920;-77
2022/06/01 11:04:58;;;;;;;;;;;19.30;99.90;;;;;;5056209;28;19936;-77
2022/06/01 11:07:37;;;;;;;;;;;19.20;99.90;;;;;;5050106;28;19920;-78
2022/06/01 11:10:08;;;;;;;;;;;19.10;99.90;;;;;;5057094;28;19978;-78
2022/06/01 11:12:40;;;;;;;;;;;19.10;99.90;;;;;;5051463;28;19924;-77
2022/06/01 11:15:11;;;;;;;;;;;19.00;99.90;;;;;;5062750;28;19925;-77
2022/06/01 11:17:42;;;;;;;;;;;18.80;99.90;;;;;;5065079;28;19931;-77
2022/06/01 11:20:17;;;;;;;;;;;18.80;99.90;;;;;;5058882;28;20558;-77
2022/06/01 11:22:52;;;;;;;;;;;18.90;99.90;;;;;;5060665;28;19966;-76
2022/06/01 11:25:20;;;;;;;;;;;18.70;99.90;;;;;;5066667;28;19924;-78
2022/06/01 11:27:57;;;;;;;;;;;18.70;99.90;;;;;;5055146;28;20142;-78
2022/06/01 11:30:26;;;;;;;;;;;18.80;99.90;;;;;;5053494;28;20348;-78
2022/06/01 11:32:55;;;;;;;;;;;18.90;99.90;;;;;;5059028;28;19924;-79
2022/06/01 11:35:27;;;;;;;;;;;19.00;99.90;;;;;;5059903;28;19920;-78
2022/06/01 11:37:59;;;;;;;;;;;19.20;99.90;;;;;;5064686;28;19920;-78
2022/06/01 11:40:32;;;;;;;;;;;19.70;99.90;;;;;;5051982;22;19947;-76
2022/06/01 11:43:03;;;;;;;;;;;19.80;99.90;;;;;;5052563;28;19932;-76
2022/06/01 11:45:37;;;;;;;;;;;20.00;99.90;;;;;;5030475;28;20229;-76
2022/06/01 11:48:06;;;;;;;;;;;20.10;99.90;;;;;;5049509;28;19920;-76
2022/06/01 11:50:46;;;;;;;;;;;20.50;99.90;;;;;;5027912;28;19929;-75
2022/06/01 11:53:20;;;;;;;;;;;20.70;99.90;;;;;;5011037;28;19991;-74
2022/06/01 11:55:48;;;;;;;;;;;20.70;99.90;;;;;;5024509;28;19924;-74
2022/06/01 11:58:21;;;;;;;;;;;20.70;99.90;;;;;;5035228;28;19920;-76
2022/06/01 12:00:51;;;;;;;;;;;20.70;99.90;;;;;;5025480;28;19925;-74
2022/06/01 12:03:31;;;;;;;;;;;20.60;99.90;;;;;;5013991;28;19925;-75
2022/06/01 12:06:00;;;;;;;;;;;20.40;99.90;;;;;;5022773;28;19925;-75
2022/06/01 12:08:32;;;;;;;;;;;20.30;99.90;;;;;;5038143;28;19927;-73
2022/06/01 12:10:59;;;;;;;;;;;20.40;99.90;;;;;;5027386;28;19929;-74
2022/06/01 12:13:27;;;;;;;;;;;20.00;99.90;;;;;;5013289;28;20370;-73
2022/06/01 12:16:08;;;;;;;;;;;19.90;99.90;;;;;;5030147;28;19944;-74
2022/06/01 12:18:35;;;;;;;;;;;19.80;99.90;;;;;;5013708;28;20020;-73
2022/06/01 12:21:20;;;;;;;;;;;19.70;99.90;;;;;;5032558;28;19927;-74
2022/06/01 12:29:34;;;;;;;;;;;18.70;99.90;;;;;;5035206;28;19928;-74
2022/06/01 12:32:09;;;;;;;;;;;18.20;99.90;;;;;;5011771;28;19931;-75
2022/06/01 12:34:39;;;;;;;;;;;17.90;99.90;;;;;;5028130;28;19925;-74
2022/06/01 12:37:08;;;;;;;;;;;17.70;99.90;;;;;;5023337;28;20393;-74
2022/06/01 12:39:42;;;;;;;;;;;17.40;99.90;;;;;;5015826;28;19956;-76
2022/06/01 12:42:10;;;;;;;;;;;17.20;99.90;;;;;;5027155;28;19933;-75
2022/06/01 12:44:38;;;;;;;;;;;17.30;99.90;;;;;;5023599;28;19921;-76
2022/06/01 12:47:05;;;;;;;;;;;17.40;99.90;;;;;;5021624;28;19929;-76
2022/06/01 12:49:33;;;;;;;;;;;17.50;99.90;;;;;;5004049;28;20378;-75
2022/06/01 12:52:03;;;;;;;;;;;17.50;99.90;;;;;;5034169;28;19920;-76
2022/06/01 12:54:32;;;;;;;;;;;17.30;99.90;;;;;;5022874;28;19925;-76
2022/06/01 12:57:00;;;;;;;;;;;17.20;99.90;;;;;;5012784;28;19935;-79
2022/06/01 12:59:31;;;;;;;;;;;17.60;99.90;;;;;;5038928;23;20382;-77
2022/06/01 13:02:00;;;;;;;;;;;17.60;99.90;;;;;;5046842;28;19921;-76
2022/06/01 13:04:28;;;;;;;;;;;18.10;99.90;;;;;;5031585;28;19925;-77
2022/06/01 13:06:55;;;;;;;;;;;18.30;99.90;;;;;;5031406;28;19932;-77
2022/06/01 13:09:25;;;;;;;;;;;18.40;99.90;;;;;;5034756;28;20024;-79
2022/06/01 13:12:00;;;;;;;;;;;18.50;99.90;;;;;;5037289;28;19978;-76
2022/06/01 13:14:28;;;;;;;;;;;18.40;99.90;;;;;;5033675;28;19970;-78
2022/06/01 13:16:59;;;;;;;;;;;19.00;99.90;;;;;;5030480;28;19920;-76
2022/06/01 13:19:27;;;;;;;;;;;17.70;99.90;;;;;;5024303;28;19920;-77
2022/06/01 13:21:57;;;;;;;;;;;17.60;99.90;;;;;;5031506;28;19952;-77
2022/06/01 13:24:25;;;;;;;;;;;17.70;99.90;;;;;;5048453;28;20754;-78
2022/06/01 13:27:05;;;;;;;;;;;17.40;99.90;;;;;;5044304;28;19928;-77
2022/06/01 13:29:35;;;;;;;;;;;17.40;99.90;;;;;;5032279;28;19975;-78
2022/06/01 13:32:06;;;;;;;;;;;17.20;99.90;;;;;;5050402;28;19921;-80
2022/06/01 13:34:40;;;;;;;;;;;17.00;99.90;;;;;;5029065;28;19921;-80
2022/06/01 13:37:13;;;;;;;;;;;16.70;99.90;;;;;;5051025;28;20035;-79
2022/06/01 13:39:42;;;;;;;;;;;16.50;99.90;;;;;;5049181;28;19928;-80
2022/06/01 13:42:22;;;;;;;;;;;16.40;99.90;;;;;;5045576;28;20281;-76
2022/06/01 13:44:51;;;;;;;;;;;16.30;99.90;;;;;;5046344;28;19921;-77
2022/06/01 13:47:22;;;;;;;;;;;16.20;99.90;;;;;;5040355;28;20273;-82
2022/06/01 13:49:50;;;;;;;;;;;16.00;99.90;;;;;;5043495;28;19928;-77
2022/06/01 13:52:18;;;;;;;;;;;16.00;99.90;;;;;;5028853;28;19924;-78
2022/06/01 13:55:08;;;;;;;;;;;16.00;99.90;;;;;;5046276;28;19920;-81
2022/06/01 13:57:52;;;;;;;;;;;16.00;99.90;;;;;;5042170;28;19921;-79
2022/06/01 14:00:26;;;;;;;;;;;16.10;99.90;;;;;;5046477;28;19921;-76
2022/06/01 14:02:55;;;;;;;;;;;16.10;99.90;;;;;;5017550;28;19933;-79
2022/06/01 14:05:22;;;;;;;;;;;16.10;99.90;;;;;;5023308;28;19921;-79
2022/06/01 14:07:51;;;;;;;;;;;16.20;99.90;;;;;;5021178;28;19987;-81
2022/06/01 14:10:18;;;;;;;;;;;16.20;99.90;;;;;;5034025;28;19971;-81
2022/06/01 14:12:47;;;;;;;;;;;16.10;99.90;;;;;;5032993;28;20150;-81
2022/06/01 14:15:15;;;;;;;;;;;16.80;99.90;;;;;;5004511;28;19961;-80
2022/06/01 14:17:44;;;;;;;;;;;16.00;99.90;;;;;;5008978;28;19936;-79
2022/06/01 14:20:13;;;;;;;;;;;15.90;99.90;;;;;;4995889;28;19925;-80
2022/06/01 14:22:40;;;;;;;;;;;15.90;99.90;;;;;;5036718;28;19924;-78
2022/06/01 14:30:36;;;;;;;;;;;14.50;99.90;;;;;;5029709;28;19928;-79
2022/06/01 14:33:07;;;;;;;;;;;15.50;99.90;;;;;;5012028;28;19924;-78
2022/06/01 14:35:33;;;;;;;;;;;15.50;99.90;;;;;;5035476;28;20015;-78
2022/06/01 14:38:00;;;;;;;;;;;15.50;99.90;;;;;;5011478;28;19929;-79
2022/06/01 14:40:27;;;;;;;;;;;15.50;99.90;;;;;;5010998;28;20588;-76
2022/06/01 14:42:55;;;;;;;;;;;15.60;99.90;;;;;;5008587;28;19949;-78
2022/06/01 14:45:22;;;;;;;;;;;15.80;99.90;;;;;;5014970;28;19925;-80
2022/06/01 14:47:49;;;;;;;;;;;16.10;99.90;;;;;;5033514;28;19929;-80
2022/06/01 14:50:18;;;;;;;;;;;16.50;99.90;;;;;;5034689;28;20026;-81
2022/06/01 14:52:46;;;;;;;;;;;17.10;99.90;;;;;;5002326;28;20028;-80
2022/06/01 14:55:12;;;;;;;;;;;17.60;99.90;;;;;;4999125;28;20392;-77
2022/06/01 14:57:40;;;;;;;;;;;18.30;99.90;;;;;;5011702;28;19928;-78
2022/06/01 15:00:08;;;;;;;;;;;18.80;99.90;;;;;;5031216;28;20527;-78
2022/06/01 15:02:36;;;;;;;;;;;19.20;99.90;;;;;;5017607;28;19925;-78
2022/06/01 15:05:05;;;;;;;;;;;19.50;99.90;;;;;;5029302;28;19925;-80
2022/06/01 15:07:34;;;;;;;;;;;19.60;99.90;;;;;;5016048;28;19992;-81
2022/06/01 15:10:01;;;;;;;;;;;19.50;99.90;;;;;;5016516;28;19984;-81
2022/06/01 15:12:28;;;;;;;;;;;19.40;99.90;;;;;;5013373;28;19960;-80
2022/06/01 15:14:55;;;;;;;;;;;19.40;99.90;;;;;;5034314;28;19991;-83
2022/06/01 15:17:23;;;;;;;;;;;19.50;99.90;;;;;;5027503;28;20020;-83